Time;durP1;ratioP1;P1;durP2;ratioP2;P2;SDS_P1;SDS_P2;PMS_P1;PMS_P2;Temp;Humidity;BMP_temperature;BMP_pressure;BME280_temperature;BME280_humidity;BME280_pressure;Samples;Min_cycle;Max_cycle;Signal;HPM_P1;HPM_P2
2023/02/14 00:01:39;;;;;;;23.43;20.10;;;3.90;99.90;;;;;;5056191;28;20528;-72
2023/02/14 00:04:06;;;;;;;21.60;19.80;;;3.90;99.90;;;;;;5052980;28;20579;-71
2023/02/14 00:06:34;;;;;;;21.90;19.80;;;3.90;99.90;;;;;;5056338;28;20823;-74
2023/02/14 00:09:01;;;;;;;21.87;19.50;;;3.90;99.90;;;;;;5059042;28;20514;-73
2023/02/14 00:11:30;;;;;;;21.07;18.97;;;4.00;99.90;;;;;;5055952;28;20459;-71
2023/02/14 00:16:43;;;;;;;24.17;20.00;;;4.10;99.90;;;;;;5054167;28;20498;-70
2023/02/14 00:19:12;;;;;;;23.03;19.10;;;4.30;99.90;;;;;;5058921;28;20469;-71
2023/02/14 00:21:40;;;;;;;23.77;20.30;;;4.40;99.90;;;;;;5057418;28;20465;-71
2023/02/14 00:24:08;;;;;;;22.13;18.87;;;4.50;99.90;;;;;;5053704;28;20484;-70
2023/02/14 00:26:37;;;;;;;23.20;18.90;;;4.50;99.90;;;;;;5044917;28;20463;-69
2023/02/14 00:29:05;;;;;;;20.90;18.70;;;4.50;99.90;;;;;;5058707;28;20458;-70
2023/02/14 00:31:32;;;;;;;26.80;20.77;;;4.50;99.90;;;;;;5055385;28;20984;-71
2023/02/14 00:34:01;;;;;;;21.33;19.30;;;4.50;99.90;;;;;;5056919;28;20865;-71
2023/02/14 00:36:28;;;;;;;23.83;20.40;;;4.60;99.90;;;;;;5056009;28;20819;-72
2023/02/14 00:38:55;;;;;;;23.83;19.40;;;4.60;99.90;;;;;;5059229;28;20478;-71
2023/02/14 00:41:22;;;;;;;21.73;19.37;;;4.50;99.90;;;;;;5052183;28;20477;-70
2023/02/14 00:43:50;;;;;;;20.77;19.03;;;4.50;99.90;;;;;;5053437;28;20474;-71
2023/02/14 00:46:18;;;;;;;23.67;20.77;;;4.50;99.90;;;;;;5056194;28;20455;-70
2023/02/14 00:48:44;;;;;;;33.50;19.03;;;4.60;99.90;;;;;;5058166;28;20467;-69
2023/02/14 00:51:14;;;;;;;22.17;19.87;;;4.60;99.90;;;;;;5057120;28;20468;-72
2023/02/14 00:53:41;;;;;;;21.87;19.63;;;4.70;99.90;;;;;;5057104;28;20600;-69
2023/02/14 00:56:08;;;;;;;21.77;19.63;;;4.70;99.90;;;;;;5055916;28;20459;-71
2023/02/14 00:58:35;;;;;;;21.30;19.37;;;4.70;99.90;;;;;;5057262;28;20458;-69
2023/02/14 01:01:01;;;;;;;20.83;19.03;;;4.60;99.90;;;;;;5051161;28;20465;-73
2023/02/14 01:03:28;;;;;;;21.53;19.20;;;4.70;99.90;;;;;;5058561;28;20474;-70
2023/02/14 01:05:55;;;;;;;22.03;19.27;;;4.70;99.90;;;;;;5059812;28;20467;-70
2023/02/14 01:08:24;;;;;;;20.47;18.57;;;4.70;99.90;;;;;;5059059;28;20476;-71
2023/02/14 01:10:51;;;;;;;21.53;19.00;;;4.70;99.90;;;;;;5058124;28;20458;-72
2023/02/14 01:13:18;;;;;;;24.30;21.00;;;4.80;99.90;;;;;;5061182;28;20884;-72
2023/02/14 01:15:47;;;;;;;21.57;19.50;;;4.80;99.90;;;;;;5058123;28;20872;-69
2023/02/14 01:18:14;;;;;;;21.47;18.83;;;4.80;99.90;;;;;;5055552;28;20826;-69
2023/02/14 01:20:41;;;;;;;21.77;19.77;;;4.80;99.90;;;;;;5054063;28;20998;-70
2023/02/14 01:23:08;;;;;;;21.33;19.43;;;4.90;99.90;;;;;;5059871;28;20458;-69
2023/02/14 01:25:38;;;;;;;27.57;20.10;;;4.80;99.90;;;;;;5061108;28;20467;-70
2023/02/14 01:28:06;;;;;;;22.90;20.73;;;4.70;99.90;;;;;;5059096;28;20802;-70
2023/02/14 01:30:35;;;;;;;20.47;18.63;;;4.80;99.90;;;;;;5058953;28;20466;-72
2023/02/14 01:33:02;;;;;;;22.97;20.77;;;4.80;99.90;;;;;;5054181;28;20459;-71
2023/02/14 01:35:29;;;;;;;22.90;20.70;;;4.60;99.90;;;;;;5055846;28;20573;-70
2023/02/14 01:37:56;;;;;;;21.83;19.73;;;4.50;99.90;;;;;;5057966;28;20477;-70
2023/02/14 01:40:23;;;;;;;22.40;19.80;;;4.40;99.90;;;;;;5056974;28;20460;-69
2023/02/14 01:42:51;;;;;;;22.33;20.13;;;4.30;99.90;;;;;;5058476;28;20559;-73
2023/02/14 01:45:21;;;;;;;22.90;20.60;;;4.20;99.90;;;;;;5055801;28;20465;-72
2023/02/14 01:47:51;;;;;;;24.13;20.80;;;4.10;99.90;;;;;;5048767;28;20466;-71
2023/02/14 01:50:22;;;;;;;21.80;19.83;;;4.10;99.90;;;;;;5060343;28;20537;-73
2023/02/14 01:52:54;;;;;;;21.83;19.70;;;4.00;99.90;;;;;;5060971;28;20452;-71
2023/02/14 01:55:24;;;;;;;22.63;20.43;;;4.00;99.90;;;;;;5058225;28;20490;-69
2023/02/14 01:57:59;;;;;;;27.30;21.70;;;3.90;99.90;;;;;;5056436;28;20965;-70
2023/02/14 02:03:13;;;;;;;23.87;21.67;;;3.70;99.90;;;;;;5050085;28;20552;-72
2023/02/14 02:05:43;;;;;;;23.07;20.97;;;3.60;99.90;;;;;;5048387;28;20494;-71
2023/02/14 02:08:10;;;;;;;27.27;21.10;;;3.50;99.90;;;;;;5063853;28;20459;-70
2023/02/14 02:10:37;;;;;;;23.77;21.37;;;3.50;99.90;;;;;;5061761;28;20466;-72
2023/02/14 02:13:07;;;;;;;22.70;20.47;;;3.40;99.90;;;;;;5056194;28;20460;-72
2023/02/14 02:15:41;;;;;;;24.63;22.30;;;3.40;99.90;;;;;;5055840;28;20514;-73
2023/02/14 02:18:15;;;;;;;24.90;21.73;;;3.30;99.90;;;;;;5058016;28;20491;-73
2023/02/14 02:21:09;;;;;;;27.03;23.50;;;3.30;99.90;;;;;;5057034;28;20472;-70
2023/02/14 02:24:01;;;;;;;25.10;22.73;;;3.30;99.90;;;;;;5058914;28;20468;-71
2023/02/14 02:27:08;;;;;;;26.47;23.03;;;3.30;99.90;;;;;;5056699;28;20457;-72
2023/02/14 02:30:03;;;;;;;26.07;22.53;;;3.20;99.90;;;;;;5043693;28;21140;-73
2023/02/14 02:33:07;;;;;;;24.10;21.50;;;3.20;99.90;;;;;;5059265;28;20460;-69
2023/02/14 02:35:50;;;;;;;25.80;22.10;;;3.20;99.90;;;;;;5050033;28;20490;-71
2023/02/14 02:38:43;;;;;;;27.63;23.20;;;3.20;99.90;;;;;;5061457;28;20479;-69
2023/02/14 02:41:18;;;;;;;26.77;24.23;;;3.20;99.90;;;;;;5057004;28;20549;-70
2023/02/14 02:43:52;;;;;;;24.13;21.90;;;3.30;99.90;;;;;;5060413;28;20474;-73
2023/02/14 02:53:01;;;;;;;25.00;22.60;;;3.20;99.90;;;;;;5055410;28;20965;-70
2023/02/14 02:55:02;;;;;;;24.40;22.20;;;3.20;99.90;;;;;;5042972;28;20833;-70
2023/02/14 02:57:33;;;;;;;26.17;22.90;;;3.20;99.90;;;;;;5055657;28;20456;-71
2023/02/14 03:00:01;;;;;;;26.17;23.77;;;3.10;99.90;;;;;;5051768;28;20471;-70
2023/02/14 03:02:31;;;;;;;26.80;24.10;;;3.10;99.90;;;;;;5056177;28;20811;-72
2023/02/14 03:05:01;;;;;;;25.03;22.53;;;3.00;99.90;;;;;;5065956;28;20519;-69
2023/02/14 03:07:35;;;;;;;25.53;22.77;;;3.00;99.90;;;;;;5056133;28;20634;-70
2023/02/14 03:10:10;;;;;;;26.40;23.57;;;2.90;99.90;;;;;;5055271;28;20464;-72
2023/02/14 03:13:12;;;;;;;31.83;24.70;;;2.90;99.90;;;;;;5053632;28;20868;-69
2023/02/14 03:15:52;;;;;;;25.57;23.07;;;2.90;99.90;;;;;;5058680;28;21013;-70
2023/02/14 03:21:30;;;;;;;29.40;25.10;;;2.80;99.90;;;;;;5054212;28;20952;-69
2023/02/14 03:24:08;;;;;;;29.00;25.57;;;2.70;99.90;;;;;;5054680;28;20499;-72
2023/02/14 03:26:39;;;;;;;28.67;25.67;;;2.70;99.90;;;;;;5028955;28;20952;-72
2023/02/14 03:29:16;;;;;;;28.23;25.43;;;2.70;99.90;;;;;;5053720;28;20811;-68
2023/02/14 03:31:54;;;;;;;32.20;28.17;;;2.70;99.90;;;;;;5065367;28;20497;-71
2023/02/14 03:34:27;;;;;;;30.13;25.17;;;2.70;99.90;;;;;;5052780;28;20511;-71
2023/02/14 03:36:59;;;;;;;29.37;24.77;;;2.70;99.90;;;;;;5060403;28;20961;-70
2023/02/14 03:39:31;;;;;;;31.93;25.07;;;2.60;99.90;;;;;;5052043;28;20539;-69
2023/02/14 03:42:03;;;;;;;29.27;25.53;;;2.70;99.90;;;;;;5052595;28;20540;-72
2023/02/14 03:44:32;;;;;;;28.57;25.47;;;2.60;99.90;;;;;;5055228;28;20886;-72
2023/02/14 03:47:02;;;;;;;29.37;25.97;;;2.70;99.90;;;;;;5059683;28;20467;-72
2023/02/14 03:49:32;;;;;;;31.07;27.07;;;2.70;99.90;;;;;;5057923;28;20462;-69
2023/02/14 03:52:00;;;;;;;31.40;25.90;;;2.80;99.90;;;;;;5053788;28;20463;-70
2023/02/14 03:54:33;;;;;;;32.03;25.73;;;2.80;99.90;;;;;;5058970;28;20483;-71
2023/02/14 03:57:07;;;;;;;28.60;24.90;;;2.80;99.90;;;;;;5050979;28;20462;-69
2023/02/14 03:59:35;;;;;;;29.13;26.00;;;2.90;99.90;;;;;;5056988;28;21034;-72
2023/02/14 04:02:06;;;;;;;27.83;25.10;;;2.90;99.90;;;;;;5054087;28;20559;-71
2023/02/14 04:04:36;;;;;;;41.63;25.33;;;2.90;99.90;;;;;;5052245;28;20481;-70
2023/02/14 04:07:10;;;;;;;31.13;25.50;;;3.00;99.90;;;;;;5052645;28;20469;-72
2023/02/14 04:09:38;;;;;;;27.77;25.03;;;3.00;99.90;;;;;;5051799;28;20523;-71
2023/02/14 04:12:05;;;;;;;27.57;24.57;;;3.00;99.90;;;;;;5055806;28;20463;-71
2023/02/14 04:14:32;;;;;;;26.63;23.97;;;3.00;99.90;;;;;;5058376;28;20489;-70
2023/02/14 04:19:43;;;;;;;26.83;23.93;;;3.00;99.90;;;;;;5052035;28;20494;-69
2023/02/14 04:22:10;;;;;;;27.77;24.97;;;2.90;99.90;;;;;;5056279;28;20460;-69
2023/02/14 04:24:39;;;;;;;30.03;25.90;;;2.90;99.90;;;;;;5054894;28;20468;-70
2023/02/14 04:27:12;;;;;;;30.97;26.57;;;2.80;99.90;;;;;;5056411;28;20553;-71
2023/02/14 04:29:40;;;;;;;33.97;26.87;;;2.80;99.90;;;;;;5057685;28;20715;-71
2023/02/14 04:32:09;;;;;;;29.37;26.57;;;2.70;99.90;;;;;;5055309;28;20468;-71
2023/02/14 04:34:36;;;;;;;28.80;25.80;;;2.70;99.90;;;;;;5059178;28;20482;-72
2023/02/14 04:37:03;;;;;;;29.80;26.60;;;2.70;99.90;;;;;;5054086;28;20459;-71
2023/02/14 04:39:30;;;;;;;30.17;26.07;;;2.70;99.90;;;;;;5055843;28;20464;-69
2023/02/14 04:41:58;;;;;;;29.47;26.27;;;2.70;99.90;;;;;;5063776;28;20482;-70
2023/02/14 04:44:25;;;;;;;33.20;26.47;;;2.60;99.90;;;;;;5058213;28;20466;-71
2023/02/14 04:46:53;;;;;;;28.47;25.60;;;2.60;99.90;;;;;;5060771;28;20467;-73
2023/02/14 04:49:20;;;;;;;27.67;24.87;;;2.60;99.90;;;;;;5061986;28;21145;-70
2023/02/14 04:51:47;;;;;;;29.03;25.93;;;2.50;99.90;;;;;;5062815;28;20464;-72
2023/02/14 04:54:14;;;;;;;27.70;25.00;;;2.50;99.90;;;;;;5063967;28;20466;-72
2023/02/14 04:56:40;;;;;;;29.30;26.10;;;2.50;99.90;;;;;;5058515;28;20521;-71
2023/02/14 04:59:09;;;;;;;28.47;25.50;;;2.40;99.90;;;;;;5053611;28;20463;-70
2023/02/14 05:01:36;;;;;;;30.37;27.17;;;2.40;99.90;;;;;;5060016;28;20454;-71
2023/02/14 05:04:03;;;;;;;30.40;25.77;;;2.40;99.90;;;;;;5052061;28;20471;-72
2023/02/14 05:06:30;;;;;;;31.60;25.33;;;2.40;99.90;;;;;;5054123;28;20470;-72
2023/02/14 05:08:57;;;;;;;34.80;27.87;;;2.50;99.90;;;;;;5063131;28;20461;-70
2023/02/14 05:11:23;;;;;;;29.73;26.57;;;2.50;99.90;;;;;;5054058;28;20462;-73
2023/02/14 05:13:50;;;;;;;31.77;27.07;;;2.50;99.90;;;;;;5054331;28;20467;-70
2023/02/14 05:16:19;;;;;;;32.07;27.57;;;2.50;99.90;;;;;;5057255;28;20490;-71
2023/02/14 05:18:45;;;;;;;28.63;25.53;;;2.50;99.90;;;;;;5051846;28;20468;-72
2023/02/14 05:21:12;;;;;;;33.37;29.60;;;2.50;99.90;;;;;;5058796;28;20839;-70
2023/02/14 05:23:40;;;;;;;32.17;28.67;;;2.50;99.90;;;;;;5057087;28;20462;-72
2023/02/14 05:26:07;;;;;;;37.73;33.60;;;2.50;99.90;;;;;;5050145;28;20538;-71
2023/02/14 05:28:35;;;;;;;33.80;30.17;;;2.50;99.90;;;;;;5056414;28;20970;-69
2023/02/14 05:31:02;;;;;;;30.73;27.43;;;2.40;99.90;;;;;;5058599;28;20513;-72
2023/02/14 05:33:30;;;;;;;32.37;27.00;;;2.40;99.90;;;;;;5049200;28;20469;-71
2023/02/14 05:35:59;;;;;;;30.23;26.90;;;2.40;99.90;;;;;;5060016;28;20493;-71
2023/02/14 05:38:26;;;;;;;31.23;27.47;;;2.40;99.90;;;;;;5054626;28;20458;-71
2023/02/14 05:40:53;;;;;;;38.00;28.70;;;2.40;99.90;;;;;;5052980;28;20471;-70
2023/02/14 05:43:20;;;;;;;40.73;29.87;;;2.40;99.90;;;;;;5055832;28;20859;-72
2023/02/14 05:45:48;;;;;;;33.90;29.17;;;2.30;99.90;;;;;;5063500;28;20463;-71
2023/02/14 05:48:15;;;;;;;34.47;28.33;;;2.30;99.90;;;;;;5054084;28;20459;-71
2023/02/14 05:50:44;;;;;;;37.70;30.90;;;2.30;99.90;;;;;;5057676;28;20827;-69
2023/02/14 05:53:11;;;;;;;32.57;28.30;;;2.30;99.90;;;;;;5059686;28;20477;-70
2023/02/14 05:55:38;;;;;;;33.90;29.30;;;2.30;99.90;;;;;;5053473;28;20486;-70
2023/02/14 05:58:04;;;;;;;30.03;27.00;;;2.20;99.90;;;;;;5063954;28;20820;-68
2023/02/14 06:00:32;;;;;;;34.13;29.23;;;2.30;99.90;;;;;;5054751;28;20470;-69
2023/02/14 06:02:59;;;;;;;37.43;30.33;;;2.30;99.90;;;;;;5053399;28;20464;-69
2023/02/14 06:05:27;;;;;;;33.17;29.43;;;2.30;99.90;;;;;;5056056;28;20492;-71
2023/02/14 06:07:55;;;;;;;31.40;28.03;;;2.30;99.90;;;;;;5055162;28;20950;-69
2023/02/14 06:10:23;;;;;;;32.30;29.00;;;2.30;99.90;;;;;;5057468;28;20561;-71
2023/02/14 06:12:52;;;;;;;37.10;30.23;;;2.30;99.90;;;;;;5062988;28;20475;-68
2023/02/14 06:15:20;;;;;;;38.20;30.80;;;2.20;99.90;;;;;;5056285;28;20949;-72
2023/02/14 06:17:51;;;;;;;35.03;28.63;;;2.30;99.90;;;;;;5061380;28;20467;-69
2023/02/14 06:20:18;;;;;;;35.87;29.03;;;2.30;99.90;;;;;;5055388;28;20474;-72
2023/02/14 06:22:46;;;;;;;41.20;31.30;;;2.30;99.90;;;;;;5057652;28;20914;-70
2023/02/14 06:25:14;;;;;;;35.40;31.50;;;2.30;99.90;;;;;;5059936;28;20478;-71
2023/02/14 06:27:41;;;;;;;36.23;29.87;;;2.30;99.90;;;;;;5066686;28;20467;-69
2023/02/14 06:30:10;;;;;;;39.10;30.87;;;2.20;99.90;;;;;;5053565;28;20459;-71
2023/02/14 06:32:37;;;;;;;38.63;29.27;;;2.20;99.90;;;;;;5055549;28;20721;-71
2023/02/14 06:35:05;;;;;;;40.00;28.80;;;2.20;99.90;;;;;;5056994;28;20505;-70
2023/02/14 06:37:32;;;;;;;40.03;30.50;;;2.20;99.90;;;;;;5057634;28;20843;-70
2023/02/14 06:40:00;;;;;;;34.80;30.73;;;2.20;99.90;;;;;;5050467;28;20470;-70
2023/02/14 06:42:28;;;;;;;36.93;30.13;;;2.20;99.90;;;;;;5057029;28;20495;-72
2023/02/14 06:44:54;;;;;;;41.57;31.67;;;2.10;99.90;;;;;;5064238;28;20455;-71
2023/02/14 06:47:21;;;;;;;34.23;29.13;;;2.10;99.90;;;;;;5054891;28;20466;-72
2023/02/14 06:49:48;;;;;;;37.70;29.43;;;2.10;99.90;;;;;;5054833;28;20475;-72
2023/02/14 06:52:15;;;;;;;41.47;31.67;;;2.10;99.90;;;;;;5055327;28;20498;-72
2023/02/14 06:54:42;;;;;;;38.57;31.27;;;2.20;99.90;;;;;;5052642;28;20463;-70
2023/02/14 06:59:51;;;;;;;32.90;29.37;;;2.10;99.90;;;;;;5052798;28;20547;-70
2023/02/14 07:02:18;;;;;;;35.33;29.90;;;2.10;99.90;;;;;;5055415;28;20795;-71
2023/02/14 07:04:45;;;;;;;36.30;30.93;;;2.10;99.90;;;;;;5051954;28;20542;-72
2023/02/14 07:07:12;;;;;;;40.37;29.77;;;2.20;99.90;;;;;;5055156;28;20969;-71
2023/02/14 07:09:39;;;;;;;36.30;30.60;;;2.20;99.90;;;;;;5053910;28;20514;-71
2023/02/14 07:12:07;;;;;;;39.40;29.97;;;2.20;99.90;;;;;;5056070;28;20514;-69
2023/02/14 07:14:35;;;;;;;36.53;30.60;;;2.30;99.90;;;;;;5055788;28;20875;-69
2023/02/14 07:17:04;;;;;;;39.60;30.80;;;2.30;99.90;;;;;;5052703;28;20569;-72
2023/02/14 07:19:31;;;;;;;33.83;30.07;;;2.30;99.90;;;;;;5050703;28;20459;-71
2023/02/14 07:21:58;;;;;;;40.43;30.70;;;2.30;99.90;;;;;;5055848;28;20470;-69
2023/02/14 07:24:26;;;;;;;38.43;30.23;;;2.30;99.90;;;;;;5054912;28;20553;-71
2023/02/14 07:26:53;;;;;;;37.43;31.97;;;2.40;99.90;;;;;;5059623;28;20485;-72
2023/02/14 07:29:20;;;;;;;37.27;30.70;;;2.40;99.90;;;;;;5056488;28;20485;-72
2023/02/14 07:31:47;;;;;;;39.57;30.27;;;2.40;99.90;;;;;;5056754;28;20470;-69
2023/02/14 07:34:15;;;;;;;41.97;31.70;;;2.40;99.90;;;;;;5048772;28;20475;-72
2023/02/14 07:36:42;;;;;;;34.40;30.43;;;2.50;99.90;;;;;;5048372;28;20484;-70
2023/02/14 07:39:09;;;;;;;34.50;29.83;;;2.50;99.90;;;;;;5063176;28;20537;-70
2023/02/14 07:41:36;;;;;;;41.70;31.63;;;2.50;99.90;;;;;;5054483;28;20727;-69
2023/02/14 07:44:04;;;;;;;47.83;31.43;;;2.50;99.90;;;;;;5054031;28;21126;-69
2023/02/14 07:46:30;;;;;;;35.00;30.83;;;2.60;99.90;;;;;;5056265;28;20846;-69
2023/02/14 07:48:57;;;;;;;41.43;30.67;;;2.70;99.90;;;;;;5048755;28;20462;-68
2023/02/14 07:51:25;;;;;;;38.80;30.87;;;2.70;99.90;;;;;;5050183;28;20466;-70
2023/02/14 07:53:52;;;;;;;36.07;30.67;;;2.70;99.90;;;;;;5049114;28;20452;-67
2023/02/14 07:56:19;;;;;;;37.50;31.80;;;2.80;99.90;;;;;;5052544;28;20569;-69
2023/02/14 07:58:46;;;;;;;39.80;31.70;;;2.90;99.90;;;;;;5052645;28;21099;-69
2023/02/14 08:01:12;;;;;;;45.47;32.90;;;2.90;99.90;;;;;;5051458;28;20805;-69
2023/02/14 08:03:39;;;;;;;36.47;32.53;;;3.00;99.90;;;;;;5057667;28;20640;-70
2023/02/14 08:06:07;;;;;;;43.20;31.97;;;3.00;99.90;;;;;;5055696;28;20459;-69
2023/02/14 08:08:35;;;;;;;44.13;32.90;;;3.10;99.90;;;;;;5049999;28;20467;-70
2023/02/14 08:11:02;;;;;;;52.17;36.60;;;3.10;99.90;;;;;;5043902;28;20964;-69
2023/02/14 08:13:28;;;;;;;44.70;31.73;;;3.20;99.90;;;;;;5049021;28;20464;-72
2023/02/14 08:16:04;;;;;;;45.90;33.47;;;3.30;99.90;;;;;;5051773;28;21021;-69
2023/02/14 08:18:32;;;;;;;47.33;35.33;;;3.40;99.90;;;;;;5056111;28;20467;-70
2023/02/14 08:20:59;;;;;;;44.40;32.63;;;3.50;99.90;;;;;;5060134;28;20467;-70
2023/02/14 08:23:27;;;;;;;46.60;34.90;;;3.60;99.90;;;;;;5053955;28;20464;-69
2023/02/14 08:25:55;;;;;;;43.93;34.23;;;3.70;99.90;;;;;;5047582;28;20481;-70
2023/02/14 08:28:22;;;;;;;62.27;35.40;;;3.70;99.90;;;;;;5052554;28;20463;-71
2023/02/14 08:30:49;;;;;;;56.70;33.97;;;3.80;99.90;;;;;;5048258;28;20486;-70
2023/02/14 08:33:17;;;;;;;44.83;33.40;;;3.90;99.90;;;;;;5052905;28;20468;-70
2023/02/14 08:35:43;;;;;;;46.07;36.17;;;3.90;99.90;;;;;;5055873;28;20483;-70
2023/02/14 08:38:10;;;;;;;50.67;35.47;;;4.00;99.90;;;;;;5048415;28;20484;-71
2023/02/14 08:40:37;;;;;;;42.23;33.17;;;4.10;99.90;;;;;;5049443;28;20543;-69
2023/02/14 08:43:06;;;;;;;49.00;34.27;;;4.20;99.90;;;;;;5051226;28;21029;-71
2023/02/14 08:45:32;;;;;;;53.13;35.53;;;4.30;99.90;;;;;;5048338;28;20479;-71
2023/02/14 08:48:04;;;;;;;52.97;36.80;;;4.40;99.90;;;;;;5042162;28;20468;-69
2023/02/14 08:50:31;;;;;;;54.67;37.30;;;4.40;99.90;;;;;;5054317;28;20867;-69
2023/02/14 08:52:58;;;;;;;50.80;36.27;;;4.50;99.90;;;;;;5051069;28;21046;-72
2023/02/14 08:55:26;;;;;;;55.80;38.13;;;4.60;99.90;;;;;;5047041;28;20473;-70
2023/02/14 08:57:55;;;;;;;62.00;37.87;;;4.70;99.90;;;;;;5043608;28;20464;-73
2023/02/14 09:00:23;;;;;;;46.80;36.73;;;4.80;99.90;;;;;;5048744;28;20469;-72
2023/02/14 09:02:52;;;;;;;54.63;38.40;;;4.90;99.90;;;;;;5048708;28;20840;-73
2023/02/14 09:05:22;;;;;;;54.20;37.77;;;5.00;99.90;;;;;;5053946;28;20486;-71
2023/02/14 09:07:49;;;;;;;54.70;38.50;;;5.20;99.90;;;;;;5047116;28;20487;-70
2023/02/14 09:10:17;;;;;;;54.63;39.10;;;5.20;99.90;;;;;;5048806;28;20470;-72
2023/02/14 09:12:44;;;;;;;50.87;37.43;;;5.20;99.90;;;;;;5048384;28;20463;-70
2023/02/14 09:15:11;;;;;;;52.50;38.07;;;5.30;99.90;;;;;;5056495;28;20486;-72
2023/02/14 09:17:39;;;;;;;57.17;38.37;;;5.40;99.90;;;;;;5046635;28;20502;-70
2023/02/14 09:20:08;;;;;;;52.47;39.00;;;5.50;99.90;;;;;;5051640;28;20462;-70
2023/02/14 09:22:36;;;;;;;54.27;40.93;;;5.50;99.90;;;;;;5053168;28;20465;-70
2023/02/14 09:25:03;;;;;;;54.17;41.40;;;5.60;99.90;;;;;;5052868;28;20455;-70
2023/02/14 09:27:31;;;;;;;58.17;40.67;;;5.70;99.90;;;;;;5051317;28;20462;-72
2023/02/14 09:29:58;;;;;;;56.40;40.17;;;5.80;99.90;;;;;;5054530;28;20605;-70
2023/02/14 09:32:25;;;;;;;56.30;40.97;;;5.90;99.90;;;;;;5055967;28;20969;-71
2023/02/14 09:34:54;;;;;;;52.33;42.00;;;5.90;99.90;;;;;;5054357;28;20470;-71
2023/02/14 09:40:06;;;;;;;58.53;42.83;;;6.10;99.90;;;;;;5053551;28;20646;-70
2023/02/14 09:42:44;;;;;;;55.80;41.20;;;6.20;99.90;;;;;;5050978;28;20498;-71
2023/02/14 09:45:14;;;;;;;58.73;42.43;;;6.40;99.90;;;;;;5053756;28;20465;-72
2023/02/14 09:47:47;;;;;;;50.23;41.77;;;6.50;99.90;;;;;;5051506;28;20493;-70
2023/02/14 09:50:22;;;;;;;57.20;42.50;;;6.50;99.90;;;;;;5054077;28;20878;-71
2023/02/14 09:52:52;;;;;;;59.77;43.60;;;6.50;99.90;;;;;;5056720;28;20466;-69
2023/02/14 09:55:19;;;;;;;68.30;40.53;;;6.70;99.90;;;;;;5058185;28;20832;-70
2023/02/14 09:57:57;;;;;;;66.87;43.37;;;6.70;99.90;;;;;;5057453;28;20568;-70
2023/02/14 10:00:32;;;;;;;58.30;43.77;;;6.80;99.90;;;;;;5058974;28;20453;-72
2023/02/14 10:03:11;;;;;;;53.70;41.27;;;6.90;99.90;;;;;;5066475;28;20458;-69
2023/02/14 10:05:45;;;;;;;59.30;42.90;;;7.00;99.90;;;;;;5048691;28;20925;-73
2023/02/14 10:08:25;;;;;;;48.73;40.23;;;7.10;99.90;;;;;;5055565;28;20471;-71
2023/02/14 10:11:02;;;;;;;56.83;41.40;;;7.00;99.90;;;;;;5052414;28;20470;-72
2023/02/14 10:13:34;;;;;;;66.50;41.90;;;7.10;99.90;;;;;;5053834;28;20454;-71
2023/02/14 10:16:07;;;;;;;53.27;38.80;;;7.20;99.90;;;;;;5055340;28;20508;-70
2023/02/14 10:18:40;;;;;;;53.10;38.70;;;7.30;99.90;;;;;;5036634;28;20463;-71
2023/02/14 10:21:12;;;;;;;54.17;39.70;;;7.40;99.90;;;;;;5051445;28;20464;-70
2023/02/14 10:23:45;;;;;;;55.10;38.17;;;7.40;99.90;;;;;;5048797;28;20976;-70
2023/02/14 10:26:16;;;;;;;49.10;37.90;;;7.50;99.90;;;;;;5059433;28;20470;-73
2023/02/14 10:28:45;;;;;;;43.43;38.50;;;7.70;99.90;;;;;;5060089;28;20460;-72
2023/02/14 10:31:19;;;;;;;52.33;40.50;;;7.80;99.90;;;;;;5058988;28;20478;-70
2023/02/14 10:33:53;;;;;;;49.43;36.10;;;7.80;99.90;;;;;;5055639;28;20470;-71
2023/02/14 10:36:32;;;;;;;45.43;35.87;;;7.80;99.90;;;;;;5052895;28;20876;-70
2023/02/14 10:39:08;;;;;;;52.23;37.13;;;7.90;99.90;;;;;;5053439;28;20539;-70
2023/02/14 10:41:47;;;;;;;44.90;35.90;;;8.10;99.90;;;;;;5053127;28;21001;-70
2023/02/14 10:44:33;;;;;;;50.53;36.10;;;8.50;99.90;;;;;;5059767;28;20475;-72
2023/02/14 10:47:08;;;;;;;44.10;34.30;;;9.00;99.90;;;;;;5051383;28;20468;-72
2023/02/14 10:49:44;;;;;;;41.40;31.73;;;10.00;99.90;;;;;;5060185;28;20823;-71
2023/02/14 10:52:22;;;;;;;44.80;32.90;;;11.00;99.90;;;;;;5056279;28;20467;-72
2023/02/14 10:54:54;;;;;;;35.00;31.20;;;11.70;99.90;;;;;;5053307;28;21024;-71
2023/02/14 10:57:26;;;;;;;40.80;32.80;;;12.30;99.90;;;;;;5050421;28;20998;-70
2023/02/14 10:59:57;;;;;;;34.17;30.53;;;12.40;99.90;;;;;;5058355;28;20729;-71
2023/02/14 11:02:30;;;;;;;42.97;31.80;;;12.70;99.90;;;;;;5054524;28;20525;-71
2023/02/14 11:04:58;;;;;;;34.03;29.90;;;12.80;99.90;;;;;;5048130;28;20486;-71
2023/02/14 11:07:26;;;;;;;33.63;30.23;;;13.10;99.90;;;;;;5053669;28;20463;-70
2023/02/14 11:09:53;;;;;;;32.33;29.10;;;13.50;99.90;;;;;;5054551;28;20462;-73
2023/02/14 11:12:36;;;;;;;32.27;28.93;;;14.50;99.90;;;;;;5057432;28;20462;-71
2023/02/14 11:15:19;;;;;;;35.90;31.10;;;14.70;99.90;;;;;;5055130;28;20839;-71
2023/02/14 11:17:46;;;;;;;47.23;35.13;;;14.60;99.90;;;;;;5057006;28;20586;-69
2023/02/14 11:20:26;;;;;;;33.07;29.87;;;14.60;99.90;;;;;;5050671;28;20470;-70
2023/02/14 11:22:54;;;;;;;36.23;31.27;;;14.50;99.90;;;;;;5047251;28;21029;-71
2023/02/14 11:25:23;;;;;;;35.87;30.00;;;14.60;99.90;;;;;;5051222;28;20462;-72
2023/02/14 11:27:57;;;;;;;33.13;29.73;;;14.50;99.90;;;;;;5051824;28;20889;-72
2023/02/14 11:30:29;;;;;;;33.60;30.20;;;14.60;99.90;;;;;;5051049;28;20455;-71
2023/02/14 11:32:56;;;;;;;33.40;29.90;;;15.30;99.90;;;;;;5047242;28;20468;-71
2023/02/14 11:35:27;;;;;;;32.37;29.30;;;16.00;99.90;;;;;;5056602;28;20571;-72
2023/02/14 11:37:57;;;;;;;33.37;28.17;;;16.30;99.90;;;;;;5060482;28;20997;-71
2023/02/14 11:40:29;;;;;;;33.93;30.73;;;16.80;99.90;;;;;;5048740;28;20459;-74
2023/02/14 11:42:59;;;;;;;33.90;30.20;;;17.00;99.90;;;;;;5050372;28;20518;-73
2023/02/14 11:45:34;;;;;;;32.07;29.07;;;17.40;99.90;;;;;;5050337;28;20528;-71
2023/02/14 11:48:19;;;;;;;37.53;30.37;;;17.50;99.90;;;;;;5051219;28;20493;-72
2023/02/14 11:50:56;;;;;;;31.87;28.50;;;17.80;99.90;;;;;;5050688;28;20470;-72
2023/02/14 11:53:27;;;;;;;37.70;29.40;;;18.20;99.90;;;;;;5051523;28;20459;-72
2023/02/14 11:55:56;;;;;;;37.93;28.13;;;18.20;99.90;;;;;;5053262;28;20467;-72
2023/02/14 11:58:31;;;;;;;34.90;30.67;;;18.10;99.90;;;;;;5054966;28;20549;-75
2023/02/14 12:01:00;;;;;;;32.70;28.60;;;18.20;99.90;;;;;;5055095;28;20470;-71
2023/02/14 12:03:29;;;;;;;32.53;28.63;;;18.60;99.40;;;;;;5057578;28;20502;-74
2023/02/14 12:05:59;;;;;;;35.03;31.43;;;19.00;98.70;;;;;;5058838;28;20491;-72
2023/02/14 12:08:30;;;;;;;30.87;27.87;;;18.70;98.50;;;;;;5060350;28;20459;-72
2023/02/14 12:11:17;;;;;;;33.27;29.77;;;19.40;97.50;;;;;;5054393;28;20916;-74
2023/02/14 12:13:53;;;;;;;31.50;28.37;;;19.40;96.30;;;;;;5049700;28;20459;-72
2023/02/14 12:16:26;;;;;;;34.33;30.40;;;19.10;95.00;;;;;;5052378;28;20463;-72
2023/02/14 12:18:59;;;;;;;32.30;29.03;;;18.20;95.00;;;;;;5056614;28;20467;-73
2023/02/14 12:21:39;;;;;;;34.00;29.90;;;18.10;96.70;;;;;;5052584;28;20512;-72
2023/02/14 12:24:16;;;;;;;32.07;28.67;;;18.10;96.50;;;;;;5060010;28;20455;-72
2023/02/14 12:26:48;;;;;;;35.43;28.27;;;18.70;96.30;;;;;;5053721;28;20470;-75
2023/02/14 12:29:21;;;;;;;36.60;29.17;;;19.30;94.90;;;;;;5052868;28;20471;-73
2023/02/14 12:31:49;;;;;;;33.57;30.33;;;18.90;94.60;;;;;;5053247;28;20462;-72
2023/02/14 12:34:19;;;;;;;33.77;30.57;;;18.60;95.10;;;;;;5054990;28;20884;-70
2023/02/14 12:37:07;;;;;;;35.70;28.60;;;18.50;94.80;;;;;;5056564;28;20567;-70
2023/02/14 12:39:46;;;;;;;32.80;29.20;;;19.40;95.10;;;;;;5056470;28;20470;-69
2023/02/14 12:42:36;;;;;;;32.30;28.97;;;19.40;93.80;;;;;;5056329;28;20494;-70
2023/02/14 12:45:11;;;;;;;35.67;29.07;;;19.50;94.40;;;;;;5058169;28;20467;-75
2023/02/14 12:47:46;;;;;;;33.47;30.20;;;19.80;93.60;;;;;;5063261;28;20469;-72
2023/02/14 12:50:38;;;;;;;31.90;28.60;;;19.40;93.30;;;;;;5052531;28;20897;-72
2023/02/14 12:53:35;;;;;;;32.53;29.40;;;19.60;94.00;;;;;;5051633;28;20454;-70
2023/02/14 12:56:11;;;;;;;31.77;28.53;;;20.20;93.50;;;;;;5060198;28;20473;-73
2023/02/14 12:58:46;;;;;;;31.43;28.30;;;20.80;93.30;;;;;;5059935;28;20493;-71
2023/02/14 13:02:02;;;;;;;33.83;29.60;;;21.10;92.30;;;;;;5050697;28;20471;-72
2023/02/14 13:04:48;;;;;;;28.93;26.70;;;20.90;91.30;;;;;;4997548;28;21015;-71
2023/02/14 13:07:36;;;;;;;31.63;28.83;;;20.40;91.10;;;;;;5049556;28;20469;-71
2023/02/14 13:10:13;;;;;;;32.93;29.63;;;20.10;93.20;;;;;;5061728;28;20941;-71
2023/02/14 13:12:51;;;;;;;32.07;28.73;;;20.50;92.10;;;;;;5058271;28;20469;-70
2023/02/14 13:15:28;;;;;;;31.07;28.37;;;21.10;91.30;;;;;;5058223;28;20945;-70
2023/02/14 13:17:59;;;;;;;31.73;28.93;;;21.20;92.00;;;;;;5063827;28;20587;-73